Time;durP1;ratioP1;P1;durP2;ratioP2;P2;SDS_P1;SDS_P2;PMS_P1;PMS_P2;Temp;Humidity;BMP_temperature;BMP_pressure;BME280_temperature;BME280_humidity;BME280_pressure;Samples;Min_cycle;Max_cycle;Signal;HPM_P1;HPM_P2
2023/08/09 00:01:17;;;;;;;0.68;0.30;;;13.90;99.90;;;;;;4955928;28;20113;-89
2023/08/09 00:03:43;;;;;;;0.82;0.30;;;13.90;99.90;;;;;;4955554;28;20113;-82
2023/08/09 00:06:09;;;;;;;1.20;0.40;;;13.90;99.90;;;;;;4962966;28;20035;-83
2023/08/09 00:08:34;;;;;;;0.82;0.32;;;13.90;99.90;;;;;;4957769;28;20036;-82
2023/08/09 00:11:01;;;;;;;1.17;0.50;;;13.90;99.90;;;;;;4956096;28;20027;-83
2023/08/09 00:13:26;;;;;;;1.35;0.50;;;13.90;99.90;;;;;;4941696;28;20043;-82
2023/08/09 00:15:54;;;;;;;0.93;0.43;;;13.80;99.90;;;;;;4943556;28;20035;-82
2023/08/09 00:18:19;;;;;;;2.28;0.60;;;13.80;99.90;;;;;;4955836;28;20395;-83
2023/08/09 00:20:45;;;;;;;1.30;0.55;;;13.80;99.90;;;;;;4945119;28;20035;-81
2023/08/09 00:23:11;;;;;;;1.10;0.50;;;13.80;99.90;;;;;;4946970;28;20023;-91
2023/08/09 00:25:38;;;;;;;1.30;0.60;;;13.80;99.90;;;;;;4943175;28;20113;-84
2023/08/09 00:28:04;;;;;;;1.63;0.70;;;13.70;99.90;;;;;;4943328;28;20066;-82
2023/08/09 00:30:30;;;;;;;0.82;0.30;;;13.80;99.90;;;;;;4957307;28;20023;-85
2023/08/09 00:32:56;;;;;;;1.58;0.50;;;13.80;99.90;;;;;;4956080;28;20047;-82
2023/08/09 00:35:22;;;;;;;1.30;0.60;;;13.80;99.90;;;;;;4941108;28;20039;-83
2023/08/09 00:37:47;;;;;;;0.90;0.40;;;13.70;99.90;;;;;;4955092;28;20019;-84
2023/08/09 00:40:13;;;;;;;1.00;0.40;;;13.70;99.90;;;;;;4960182;28;20031;-81
2023/08/09 00:42:40;;;;;;;1.10;0.50;;;13.70;99.90;;;;;;4944605;28;20029;-84
2023/08/09 00:45:07;;;;;;;1.02;0.40;;;13.70;99.90;;;;;;4946667;28;20082;-83
2023/08/09 00:47:34;;;;;;;1.08;0.40;;;13.70;99.90;;;;;;4940810;28;20368;-83
2023/08/09 00:50:01;;;;;;;1.02;0.50;;;13.60;99.90;;;;;;4960161;28;20035;-82
2023/08/09 00:52:27;;;;;;;1.05;0.40;;;13.60;99.90;;;;;;4943117;28;20038;-83
2023/08/09 00:54:53;;;;;;;0.73;0.40;;;13.50;99.90;;;;;;4960320;28;20109;-82
2023/08/09 00:57:19;;;;;;;0.80;0.40;;;13.50;99.90;;;;;;4958086;28;20023;-83
2023/08/09 00:59:45;;;;;;;1.05;0.30;;;13.50;99.90;;;;;;4960961;28;20042;-83
2023/08/09 01:02:11;;;;;;;0.90;0.40;;;13.40;99.90;;;;;;4963217;28;20038;-85
2023/08/09 01:04:38;;;;;;;0.88;0.38;;;13.30;99.90;;;;;;4948981;28;20046;-83
2023/08/09 01:07:15;;;;;;;1.40;0.40;;;13.30;99.90;;;;;;4962839;28;20471;-83
2023/08/09 01:10:00;;;;;;;0.60;0.30;;;13.30;99.90;;;;;;4943079;28;20031;-82
2023/08/09 01:12:41;;;;;;;1.30;0.40;;;13.20;99.90;;;;;;4951272;28;20054;-84
2023/08/09 01:15:08;;;;;;;0.57;0.20;;;13.00;99.90;;;;;;4964556;28;20399;-83
2023/08/09 01:17:36;;;;;;;0.93;0.30;;;13.10;99.90;;;;;;4938992;29;20467;-82
2023/08/09 01:20:11;;;;;;;0.75;0.30;;;13.00;99.90;;;;;;4961171;28;20177;-82
2023/08/09 01:22:40;;;;;;;0.77;0.30;;;13.10;99.90;;;;;;4960977;28;20031;-83
2023/08/09 01:25:08;;;;;;;0.60;0.30;;;13.00;99.90;;;;;;4960580;28;20041;-83
2023/08/09 01:27:35;;;;;;;0.93;0.30;;;13.00;99.90;;;;;;4961698;28;20082;-83
2023/08/09 01:30:04;;;;;;;1.73;0.22;;;13.00;99.90;;;;;;4947833;28;20448;-83
2023/08/09 01:32:31;;;;;;;0.60;0.20;;;13.00;99.90;;;;;;4952658;28;20027;-82
2023/08/09 01:34:58;;;;;;;0.70;0.40;;;12.90;99.90;;;;;;4946062;28;20493;-87
2023/08/09 01:37:40;;;;;;;1.08;0.30;;;12.90;99.90;;;;;;4961959;28;20497;-83
2023/08/09 01:40:10;;;;;;;0.50;0.20;;;12.80;99.90;;;;;;4952843;28;20497;-82
2023/08/09 01:42:38;;;;;;;0.60;0.20;;;12.80;99.90;;;;;;4952439;28;20030;-85
2023/08/09 01:45:06;;;;;;;0.43;0.30;;;12.80;99.90;;;;;;4951306;28;20042;-82
2023/08/09 01:47:32;;;;;;;0.68;0.30;;;12.70;99.90;;;;;;4963258;28;20110;-83
2023/08/09 01:49:58;;;;;;;0.60;0.30;;;12.70;99.90;;;;;;4947181;28;20034;-82
2023/08/09 01:52:24;;;;;;;0.70;0.25;;;12.70;99.90;;;;;;4968011;28;20027;-83
2023/08/09 01:54:50;;;;;;;0.52;0.20;;;12.60;99.90;;;;;;4951083;28;20045;-83
2023/08/09 01:57:15;;;;;;;0.80;0.40;;;12.70;99.90;;;;;;4947284;28;20035;-83
2023/08/09 01:59:43;;;;;;;0.95;0.30;;;12.70;99.90;;;;;;4944457;28;20027;-85
2023/08/09 02:02:08;;;;;;;1.23;0.40;;;12.70;99.90;;;;;;4961127;28;20031;-85
2023/08/09 02:04:34;;;;;;;1.10;0.40;;;12.80;99.90;;;;;;4946009;28;20034;-83
2023/08/09 02:07:00;;;;;;;1.20;0.60;;;12.90;99.90;;;;;;4947137;28;20518;-86
2023/08/09 02:09:26;;;;;;;2.08;0.70;;;13.00;99.90;;;;;;4952641;28;20130;-83
2023/08/09 02:11:53;;;;;;;1.80;1.10;;;13.00;99.90;;;;;;4949602;28;20033;-83
2023/08/09 02:14:19;;;;;;;6.82;3.95;;;13.10;99.90;;;;;;4946292;28;20043;-83
2023/08/09 02:16:44;;;;;;;5.70;5.10;;;13.10;99.90;;;;;;4945034;28;20105;-83
2023/08/09 02:19:10;;;;;;;7.05;5.95;;;13.20;99.90;;;;;;4944442;28;20442;-84
2023/08/09 02:21:43;;;;;;;7.68;5.80;;;13.20;99.90;;;;;;4950784;28;20092;-82
2023/08/09 02:24:10;;;;;;;7.93;6.10;;;13.20;99.90;;;;;;4938721;28;20126;-82
2023/08/09 02:26:38;;;;;;;8.48;7.55;;;13.20;99.90;;;;;;4942001;29;20061;-83
2023/08/09 02:29:04;;;;;;;7.72;6.03;;;13.20;99.90;;;;;;4964845;28;20087;-83
2023/08/09 02:31:31;;;;;;;8.75;7.80;;;13.20;99.90;;;;;;4945067;28;20027;-83
2023/08/09 02:33:57;;;;;;;11.02;9.50;;;13.20;99.90;;;;;;4949875;28;20084;-84
2023/08/09 02:36:24;;;;;;;9.82;8.80;;;13.20;99.90;;;;;;4961140;28;20032;-88
2023/08/09 02:38:50;;;;;;;10.35;8.05;;;13.20;99.90;;;;;;4961022;28;20027;-82
2023/08/09 02:41:17;;;;;;;12.95;9.90;;;13.20;99.90;;;;;;4939546;28;20063;-81
2023/08/09 02:43:43;;;;;;;12.82;11.48;;;13.20;99.90;;;;;;4961083;28;20122;-88
2023/08/09 02:46:10;;;;;;;13.07;10.57;;;13.20;99.90;;;;;;4947988;28;20063;-90
2023/08/09 02:48:36;;;;;;;9.15;8.18;;;13.20;99.90;;;;;;4959757;28;20467;-83
2023/08/09 02:51:03;;;;;;;14.07;11.18;;;13.20;99.90;;;;;;4962064;28;20035;-83
2023/08/09 02:53:36;;;;;;;14.43;11.25;;;13.20;99.90;;;;;;4942261;28;20391;-84
2023/08/09 02:56:02;;;;;;;14.13;9.93;;;13.20;99.90;;;;;;4966766;28;20399;-84
2023/08/09 02:58:28;;;;;;;11.65;10.40;;;13.20;99.90;;;;;;4945318;28;20024;-86
2023/08/09 03:00:53;;;;;;;16.35;10.65;;;13.20;99.90;;;;;;4946211;28;20031;-83
2023/08/09 03:03:19;;;;;;;13.48;10.65;;;13.30;99.90;;;;;;4944772;28;20163;-88
2023/08/09 03:05:45;;;;;;;13.55;10.95;;;13.30;99.90;;;;;;4945131;28;20490;-82
2023/08/09 03:08:12;;;;;;;10.13;8.20;;;13.30;99.90;;;;;;4961358;28;20344;-83
2023/08/09 03:10:38;;;;;;;8.95;7.30;;;13.30;99.90;;;;;;4974181;28;20549;-86
2023/08/09 03:13:04;;;;;;;11.43;9.18;;;13.30;99.90;;;;;;4962448;28;20035;-85
2023/08/09 03:15:30;;;;;;;12.60;10.30;;;13.30;99.90;;;;;;4954521;28;20148;-91
2023/08/09 03:17:55;;;;;;;11.68;9.88;;;13.30;99.90;;;;;;4945145;28;20058;-83
2023/08/09 03:20:22;;;;;;;13.57;11.18;;;13.30;99.90;;;;;;4963329;28;20752;-85
2023/08/09 03:22:48;;;;;;;14.57;10.43;;;13.20;99.90;;;;;;4945121;28;20023;-84
2023/08/09 03:25:15;;;;;;;11.38;9.15;;;13.20;99.90;;;;;;4939727;28;20029;-86
2023/08/09 03:27:45;;;;;;;10.40;8.55;;;13.30;99.90;;;;;;4958607;28;20031;-88
2023/08/09 03:30:11;;;;;;;12.00;9.48;;;13.30;99.90;;;;;;4961208;28;20031;-82
2023/08/09 03:32:38;;;;;;;9.20;8.02;;;13.30;99.90;;;;;;4945381;28;20501;-89
2023/08/09 03:35:05;;;;;;;9.88;8.10;;;13.30;99.90;;;;;;4950952;28;20035;-87
2023/08/09 03:37:31;;;;;;;9.15;7.45;;;13.30;99.90;;;;;;4943020;28;20031;-84
2023/08/09 03:39:57;;;;;;;11.77;8.90;;;13.30;99.90;;;;;;4948023;28;20046;-87
2023/08/09 03:42:22;;;;;;;12.77;8.73;;;13.30;99.90;;;;;;4958449;28;20030;-83
2023/08/09 03:44:48;;;;;;;12.07;9.02;;;13.30;99.90;;;;;;4965022;28;20510;-82
2023/08/09 03:47:14;;;;;;;11.32;9.60;;;13.30;99.90;;;;;;4962056;28;20037;-85
2023/08/09 03:49:40;;;;;;;10.85;8.48;;;13.30;99.90;;;;;;4963586;28;20030;-86
2023/08/09 03:52:06;;;;;;;9.48;7.45;;;13.30;99.90;;;;;;4960101;28;20455;-82
2023/08/09 03:54:33;;;;;;;8.80;7.03;;;13.30;99.90;;;;;;4959998;28;20457;-84
2023/08/09 03:56:59;;;;;;;8.38;5.93;;;13.40;99.90;;;;;;4939939;28;20082;-82
2023/08/09 03:59:24;;;;;;;7.13;6.05;;;13.30;99.90;;;;;;4945042;28;20395;-83
2023/08/09 04:01:50;;;;;;;8.80;5.03;;;13.40;99.90;;;;;;4946818;28;20034;-89
2023/08/09 04:04:16;;;;;;;10.50;7.10;;;13.40;99.90;;;;;;4961389;28;20037;-82
2023/08/09 04:06:42;;;;;;;10.60;7.45;;;13.40;99.90;;;;;;4945661;28;20030;-84
2023/08/09 04:09:07;;;;;;;8.95;6.57;;;13.40;99.90;;;;;;4957788;28;20077;-82
2023/08/09 04:11:34;;;;;;;7.82;6.30;;;13.40;99.90;;;;;;4949762;28;20033;-91
2023/08/09 04:14:01;;;;;;;8.30;5.70;;;13.40;99.90;;;;;;4946619;28;20098;-82
2023/08/09 04:16:27;;;;;;;7.35;4.68;;;13.40;99.90;;;;;;4947826;28;20031;-81
2023/08/09 04:18:52;;;;;;;6.55;3.92;;;13.40;99.90;;;;;;4948134;28;20091;-82
2023/08/09 04:21:18;;;;;;;8.80;6.65;;;13.40;99.90;;;;;;4944817;28;20027;-82
2023/08/09 04:23:44;;;;;;;7.20;5.82;;;13.40;99.90;;;;;;4941452;29;20039;-81
2023/08/09 04:26:09;;;;;;;8.48;6.75;;;13.40;99.90;;;;;;4949106;28;20727;-82
2023/08/09 04:28:35;;;;;;;7.00;5.25;;;13.40;99.90;;;;;;4942949;28;20497;-82
2023/08/09 04:31:03;;;;;;;6.05;4.50;;;13.40;99.90;;;;;;4961632;28;20093;-83
2023/08/09 04:33:29;;;;;;;9.30;6.72;;;13.50;99.90;;;;;;4946619;28;20051;-82
2023/08/09 04:35:54;;;;;;;7.32;5.53;;;13.50;99.90;;;;;;4959063;28;20377;-83
2023/08/09 04:38:20;;;;;;;9.25;6.60;;;13.50;99.90;;;;;;4946916;28;20022;-82
2023/08/09 04:40:47;;;;;;;10.95;6.40;;;13.50;99.90;;;;;;4958985;28;20454;-88
2023/08/09 04:43:14;;;;;;;5.63;3.67;;;13.50;99.90;;;;;;4962223;28;20428;-85
2023/08/09 04:45:40;;;;;;;6.35;4.68;;;13.60;99.90;;;;;;4964463;28;20427;-82
2023/08/09 04:48:05;;;;;;;10.70;7.82;;;13.50;99.90;;;;;;4955665;28;20042;-82
2023/08/09 04:50:32;;;;;;;10.43;6.72;;;13.40;99.90;;;;;;4963632;28;20035;-82
2023/08/09 04:52:59;;;;;;;11.00;8.35;;;13.50;99.90;;;;;;4956694;28;20133;-83
2023/08/09 04:55:24;;;;;;;13.77;9.45;;;13.50;99.90;;;;;;4941086;28;20054;-81
2023/08/09 04:57:51;;;;;;;8.88;5.60;;;13.50;99.90;;;;;;4963237;28;20027;-82
2023/08/09 05:00:17;;;;;;;13.15;8.85;;;13.50;99.90;;;;;;4950789;28;20435;-84
2023/08/09 05:02:42;;;;;;;10.27;7.18;;;13.50;99.90;;;;;;4968885;28;20030;-83
2023/08/09 05:05:09;;;;;;;10.77;7.68;;;13.40;99.90;;;;;;4953908;28;20587;-82
2023/08/09 05:07:36;;;;;;;11.43;7.20;;;13.50;99.90;;;;;;4945846;28;20020;-84
2023/08/09 05:10:02;;;;;;;8.15;5.88;;;13.50;99.90;;;;;;4949918;28;20031;-82
2023/08/09 05:12:28;;;;;;;10.70;6.88;;;13.50;99.90;;;;;;4952973;28;20030;-91
2023/08/09 05:14:54;;;;;;;10.82;7.93;;;13.50;99.90;;;;;;4948728;28;20069;-82
2023/08/09 05:17:20;;;;;;;10.32;7.32;;;13.50;99.90;;;;;;4964318;28;20031;-88
2023/08/09 05:19:46;;;;;;;8.60;6.20;;;13.60;99.90;;;;;;4966985;28;20117;-84
2023/08/09 05:22:12;;;;;;;7.35;4.53;;;13.60;99.90;;;;;;4962454;28;20027;-83
2023/08/09 05:24:38;;;;;;;7.15;4.55;;;13.60;99.90;;;;;;4948907;28;20050;-82
2023/08/09 05:27:03;;;;;;;7.35;4.22;;;13.70;99.90;;;;;;4933197;28;20038;-83
2023/08/09 05:29:29;;;;;;;8.35;5.13;;;13.70;99.90;;;;;;4948650;28;20039;-82
2023/08/09 05:31:55;;;;;;;11.35;7.72;;;13.70;99.90;;;;;;4932333;28;20042;-80
2023/08/09 05:34:20;;;;;;;8.15;5.47;;;13.70;99.90;;;;;;4947620;28;20051;-83
2023/08/09 05:36:47;;;;;;;10.85;6.95;;;13.70;99.90;;;;;;4965155;28;20095;-82
2023/08/09 05:39:13;;;;;;;11.63;5.47;;;13.80;99.90;;;;;;4944755;28;20066;-84
2023/08/09 05:41:40;;;;;;;13.80;7.70;;;13.80;99.90;;;;;;4961666;28;20035;-82
2023/08/09 05:44:05;;;;;;;13.50;9.27;;;13.80;99.90;;;;;;4960985;28;20027;-86
2023/08/09 05:46:31;;;;;;;13.02;8.07;;;13.70;99.90;;;;;;4957693;28;20489;-84
2023/08/09 05:48:57;;;;;;;12.43;7.75;;;13.80;99.90;;;;;;4943648;28;20070;-83
2023/08/09 05:51:23;;;;;;;12.40;8.00;;;13.90;99.90;;;;;;4962476;28;20475;-82
2023/08/09 05:53:48;;;;;;;14.30;8.48;;;14.00;99.90;;;;;;4963620;28;20122;-82
2023/08/09 05:56:14;;;;;;;15.32;9.63;;;14.00;99.90;;;;;;4959997;28;20070;-83
2023/08/09 05:58:40;;;;;;;11.52;7.65;;;13.90;99.90;;;;;;4956829;28;20031;-82
2023/08/09 06:01:07;;;;;;;15.90;8.95;;;14.00;99.90;;;;;;4962694;28;20034;-82
2023/08/09 06:03:39;;;;;;;13.93;8.05;;;14.00;99.90;;;;;;4958235;28;20027;-83
2023/08/09 06:06:10;;;;;;;21.95;13.90;;;14.20;99.90;;;;;;4963541;28;20035;-80
2023/08/09 06:08:36;;;;;;;23.35;15.60;;;14.00;99.90;;;;;;4946813;28;20051;-85
2023/08/09 06:11:03;;;;;;;22.85;14.57;;;14.00;99.90;;;;;;4960585;28;20027;-81
2023/08/09 06:13:29;;;;;;;19.38;12.45;;;14.00;99.90;;;;;;4960408;28;20031;-81
2023/08/09 06:15:55;;;;;;;16.83;10.82;;;14.10;99.90;;;;;;4961520;28;20546;-81
2023/08/09 06:18:21;;;;;;;14.82;8.75;;;14.20;99.90;;;;;;4953042;28;20034;-85
2023/08/09 06:20:48;;;;;;;16.25;9.23;;;14.30;99.90;;;;;;4964797;28;20039;-82
2023/08/09 06:23:14;;;;;;;21.00;12.45;;;14.30;99.90;;;;;;4962768;28;20034;-83
2023/08/09 06:25:41;;;;;;;23.20;13.93;;;14.20;99.90;;;;;;4964001;28;20030;-81
2023/08/09 06:28:07;;;;;;;23.20;13.05;;;14.20;99.90;;;;;;4957136;28;20280;-84
2023/08/09 06:30:33;;;;;;;22.52;14.52;;;14.20;99.90;;;;;;4945096;28;20395;-81
2023/08/09 06:32:59;;;;;;;17.00;10.95;;;14.30;99.90;;;;;;4943957;28;20043;-84
2023/08/09 06:35:25;;;;;;;19.20;12.18;;;14.30;99.90;;;;;;4951141;28;20093;-82
2023/08/09 06:37:52;;;;;;;19.27;11.05;;;14.20;99.90;;;;;;4965453;28;20159;-83
2023/08/09 06:40:18;;;;;;;17.23;10.20;;;14.30;99.90;;;;;;4953250;28;20034;-82
2023/08/09 06:42:44;;;;;;;19.13;11.32;;;14.30;99.90;;;;;;4946244;28;20023;-82
2023/08/09 06:45:13;;;;;;;16.63;10.80;;;14.40;99.90;;;;;;4964095;28;20041;-82
2023/08/09 06:47:39;;;;;;;20.33;12.93;;;14.50;99.90;;;;;;4941623;28;20281;-81
2023/08/09 06:50:05;;;;;;;16.83;10.90;;;14.40;99.90;;;;;;4957100;28;20035;-82
2023/08/09 06:52:32;;;;;;;16.33;10.45;;;14.60;99.90;;;;;;4963657;28;20027;-81
2023/08/09 06:54:57;;;;;;;15.77;10.32;;;14.60;99.90;;;;;;4950521;28;20045;-81
2023/08/09 06:57:24;;;;;;;16.95;8.82;;;14.60;99.90;;;;;;4964095;28;20030;-81
2023/08/09 06:59:51;;;;;;;14.40;10.05;;;14.80;99.90;;;;;;4957549;28;20027;-81
2023/08/09 07:02:17;;;;;;;18.05;10.60;;;14.70;99.90;;;;;;4958325;28;20093;-81
2023/08/09 07:04:43;;;;;;;18.90;10.82;;;14.70;99.90;;;;;;4959590;28;20030;-84
2023/08/09 07:07:09;;;;;;;12.95;8.30;;;14.70;99.90;;;;;;4955239;28;20037;-81
2023/08/09 07:09:35;;;;;;;16.58;8.77;;;14.80;99.90;;;;;;4964699;28;20062;-81
2023/08/09 07:12:01;;;;;;;14.73;8.77;;;14.90;99.90;;;;;;4955037;28;20031;-81
2023/08/09 07:14:27;;;;;;;10.57;6.50;;;14.70;99.90;;;;;;4964148;28;20447;-81
2023/08/09 07:16:53;;;;;;;11.80;6.25;;;15.00;99.90;;;;;;4963585;28;20105;-83
2023/08/09 07:19:19;;;;;;;12.98;7.40;;;15.00;99.90;;;;;;4955457;28;20022;-81
2023/08/09 07:21:44;;;;;;;12.10;8.82;;;15.00;99.90;;;;;;4952180;28;20039;-83
2023/08/09 07:24:10;;;;;;;8.93;5.50;;;14.80;99.90;;;;;;4955788;28;20083;-83
2023/08/09 07:26:36;;;;;;;11.90;6.60;;;14.90;99.90;;;;;;4957357;28;20019;-83
2023/08/09 07:29:03;;;;;;;8.35;4.95;;;14.90;99.90;;;;;;4957930;28;20090;-81
2023/08/09 07:31:28;;;;;;;8.55;3.95;;;15.10;99.90;;;;;;4956642;28;20063;-82
2023/08/09 07:33:54;;;;;;;6.85;4.18;;;15.00;99.90;;;;;;4955999;28;20081;-82
2023/08/09 07:36:20;;;;;;;6.55;3.63;;;15.20;99.90;;;;;;4945943;28;20838;-82
2023/08/09 07:38:46;;;;;;;8.73;5.20;;;15.50;99.90;;;;;;4959762;28;20187;-81
2023/08/09 07:41:11;;;;;;;6.88;4.30;;;15.20;99.90;;;;;;4949232;28;20034;-81
2023/08/09 07:43:37;;;;;;;7.15;4.95;;;15.20;99.90;;;;;;4955769;28;20035;-81
2023/08/09 07:46:05;;;;;;;9.13;5.53;;;15.30;99.90;;;;;;4954611;28;20471;-81
2023/08/09 07:48:34;;;;;;;6.65;4.22;;;15.30;99.90;;;;;;4959919;28;20027;-81
2023/08/09 07:51:01;;;;;;;5.50;3.47;;;15.50;99.90;;;;;;4956350;28;20487;-80
2023/08/09 07:53:26;;;;;;;7.25;4.90;;;15.60;99.90;;;;;;4958786;28;20038;-85
2023/08/09 07:55:53;;;;;;;11.88;6.85;;;15.70;99.90;;;;;;4960500;28;20031;-81
2023/08/09 07:58:19;;;;;;;7.95;5.03;;;15.50;99.90;;;;;;4957786;28;20364;-81
2023/08/09 08:00:44;;;;;;;9.63;5.32;;;15.50;99.90;;;;;;4964053;28;20107;-81
2023/08/09 08:03:10;;;;;;;5.03;3.30;;;15.70;99.90;;;;;;4956222;28;20042;-84
2023/08/09 08:05:40;;;;;;;5.25;3.22;;;16.10;99.90;;;;;;4952970;28;20093;-82
2023/08/09 08:08:05;;;;;;;3.28;1.58;;;16.20;99.90;;;;;;4952167;28;20058;-81
2023/08/09 08:10:32;;;;;;;6.40;3.90;;;16.40;99.90;;;;;;4963480;28;20087;-83
2023/08/09 08:12:58;;;;;;;5.82;3.00;;;16.10;99.90;;;;;;4960740;28;20494;-81
2023/08/09 08:15:23;;;;;;;4.72;3.08;;;16.20;99.90;;;;;;4958269;28;20030;-84
2023/08/09 08:17:51;;;;;;;6.93;3.53;;;16.50;99.90;;;;;;4956966;28;20029;-82
2023/08/09 08:20:19;;;;;;;5.80;4.03;;;16.30;99.90;;;;;;4963863;28;20034;-82
2023/08/09 08:22:50;;;;;;;7.07;3.80;;;16.40;99.90;;;;;;4951506;28;20026;-80
2023/08/09 08:25:17;;;;;;;4.07;2.38;;;16.50;99.90;;;;;;4954253;28;20035;-84
2023/08/09 08:27:45;;;;;;;5.40;3.33;;;16.50;99.90;;;;;;4956158;28;20078;-83
2023/08/09 08:30:13;;;;;;;7.05;5.20;;;16.50;99.90;;;;;;4960267;28;20126;-82
2023/08/09 08:32:39;;;;;;;6.40;5.18;;;16.40;99.90;;;;;;4955027;28;20030;-82
2023/08/09 08:35:10;;;;;;;7.60;5.45;;;16.50;99.90;;;;;;4956380;28;20047;-83
2023/08/09 08:37:36;;;;;;;7.93;5.07;;;16.50;99.90;;;;;;4956344;28;20114;-83
2023/08/09 08:40:07;;;;;;;7.40;5.80;;;16.60;99.90;;;;;;4954547;28;20023;-81
2023/08/09 08:42:33;;;;;;;10.18;5.72;;;16.30;99.90;;;;;;4958017;28;21060;-82
2023/08/09 08:45:00;;;;;;;8.07;6.00;;;16.30;99.90;;;;;;4953727;28;20077;-82
2023/08/09 08:47:26;;;;;;;6.28;4.50;;;16.30;99.90;;;;;;4953447;28;20446;-82
2023/08/09 08:49:55;;;;;;;5.28;3.97;;;16.60;99.90;;;;;;4954123;28;20053;-84
2023/08/09 08:52:26;;;;;;;4.03;1.73;;;16.90;99.90;;;;;;4954330;28;20031;-81
2023/08/09 08:54:52;;;;;;;7.80;5.18;;;17.30;99.90;;;;;;4957686;28;20046;-81
2023/08/09 08:57:18;;;;;;;7.95;5.20;;;17.30;99.90;;;;;;4956478;28;20423;-82
2023/08/09 08:59:44;;;;;;;4.82;3.05;;;17.00;99.90;;;;;;4954417;28;20037;-82
2023/08/09 09:02:09;;;;;;;2.63;1.08;;;17.20;99.90;;;;;;4960600;28;20031;-87
2023/08/09 09:04:38;;;;;;;6.00;3.40;;;18.20;99.90;;;;;;4939832;28;20126;-82
2023/08/09 09:07:05;;;;;;;4.93;3.90;;;17.50;99.90;;;;;;4961364;28;20027;-83
2023/08/09 09:09:31;;;;;;;6.10;4.28;;;17.30;99.90;;;;;;4940365;28;20120;-81
2023/08/09 09:12:01;;;;;;;4.97;4.13;;;17.40;99.90;;;;;;4958532;28;20242;-83
2023/08/09 09:14:27;;;;;;;4.50;2.15;;;17.50;99.90;;;;;;4959922;28;20042;-83
2023/08/09 09:16:55;;;;;;;3.78;2.58;;;18.20;99.90;;;;;;4954140;28;20703;-83
2023/08/09 09:19:20;;;;;;;3.92;2.22;;;18.30;99.90;;;;;;4961525;28;20023;-83
2023/08/09 09:21:46;;;;;;;3.70;1.50;;;17.90;99.90;;;;;;4956256;28;20038;-82
2023/08/09 09:24:12;;;;;;;2.95;1.85;;;18.20;99.90;;;;;;4952537;28;20086;-82
2023/08/09 09:26:38;;;;;;;3.50;1.63;;;18.10;99.90;;;;;;4952168;28;20039;-84
2023/08/09 09:29:08;;;;;;;5.55;2.28;;;17.90;99.90;;;;;;4957811;28;20038;-82
2023/08/09 09:31:39;;;;;;;2.60;1.63;;;17.80;99.90;;;;;;4960946;28;20035;-81
2023/08/09 09:34:09;;;;;;;2.10;0.75;;;17.80;99.90;;;;;;4951378;28;20058;-85
2023/08/09 09:36:48;;;;;;;2.53;0.80;;;17.90;99.90;;;;;;4953756;28;20119;-84
2023/08/09 09:39:14;;;;;;;2.58;1.00;;;18.40;99.90;;;;;;4944237;28;20494;-82
2023/08/09 09:41:46;;;;;;;1.63;0.70;;;18.50;99.90;;;;;;4952655;28;20034;-84
2023/08/09 09:44:23;;;;;;;1.80;0.70;;;18.80;99.90;;;;;;4944868;28;20234;-82
2023/08/09 09:46:58;;;;;;;1.98;0.80;;;19.40;99.90;;;;;;4959338;28;20027;-83
2023/08/09 09:49:24;;;;;;;3.50;1.05;;;19.00;99.90;;;;;;4958031;28;20034;-82
2023/08/09 09:51:51;;;;;;;2.13;0.70;;;18.90;99.90;;;;;;4955706;28;20019;-81
2023/08/09 09:54:17;;;;;;;2.47;0.70;;;18.50;99.90;;;;;;4964253;28;20043;-83
2023/08/09 09:56:43;;;;;;;4.53;0.88;;;18.60;99.90;;;;;;4957009;28;20468;-83
2023/08/09 09:59:08;;;;;;;2.33;0.60;;;18.60;99.90;;;;;;4956787;28;20039;-82
2023/08/09 10:01:39;;;;;;;1.67;0.65;;;18.60;99.90;;;;;;4960985;28;20031;-84
2023/08/09 10:04:11;;;;;;;2.33;0.50;;;18.80;99.90;;;;;;4959365;28;20044;-86
2023/08/09 10:06:42;;;;;;;1.33;0.40;;;19.10;99.90;;;;;;4964799;28;20480;-80
2023/08/09 10:09:09;;;;;;;1.17;0.38;;;19.40;99.90;;;;;;4957361;28;20039;-82
2023/08/09 10:11:36;;;;;;;1.88;0.60;;;19.70;99.90;;;;;;4957991;28;20019;-83
2023/08/09 10:14:07;;;;;;;1.80;0.45;;;19.50;99.90;;;;;;4957148;28;20032;-82
2023/08/09 10:16:35;;;;;;;2.20;0.70;;;19.30;99.90;;;;;;4948874;28;20114;-82
2023/08/09 10:19:04;;;;;;;2.10;0.40;;;18.80;99.90;;;;;;4944499;28;20027;-84
2023/08/09 10:21:30;;;;;;;1.15;0.30;;;19.60;99.90;;;;;;4954178;28;20062;-81
2023/08/09 10:24:07;;;;;;;1.15;0.32;;;20.00;99.90;;;;;;4943143;28;20054;-81
2023/08/09 10:26:35;;;;;;;0.95;0.40;;;19.60;99.90;;;;;;4955763;28;20030;-82
2023/08/09 10:29:09;;;;;;;0.85;0.30;;;19.40;99.90;;;;;;4961540;28;20090;-81
2023/08/09 10:31:55;;;;;;;1.20;0.50;;;19.50;99.90;;;;;;4956519;28;20027;-82
2023/08/09 10:34:37;;;;;;;1.45;0.30;;;19.30;99.90;;;;;;4955870;28;20058;-81
2023/08/09 10:37:04;;;;;;;0.90;0.30;;;19.70;99.90;;;;;;4956551;28;20233;-82
2023/08/09 10:39:31;;;;;;;0.93;0.32;;;19.60;99.90;;;;;;4956559;28;20085;-82
2023/08/09 10:42:05;;;;;;;1.02;0.28;;;19.50;99.90;;;;;;4958922;28;20086;-82
2023/08/09 10:44:38;;;;;;;1.38;0.35;;;19.30;99.90;;;;;;4956440;28;20034;-81
2023/08/09 10:47:10;;;;;;;1.70;0.45;;;19.40;99.90;;;;;;4955389;28;20073;-81
2023/08/09 10:49:45;;;;;;;1.17;0.30;;;19.70;99.90;;;;;;4963860;28;20399;-79
2023/08/09 10:52:19;;;;;;;0.68;0.30;;;19.70;99.90;;;;;;4955621;28;20102;-81
2023/08/09 10:54:46;;;;;;;1.48;0.30;;;19.80;99.90;;;;;;4962188;28;20043;-81
2023/08/09 10:57:12;;;;;;;0.45;0.20;;;19.90;99.90;;;;;;4956266;28;20086;-84
2023/08/09 10:59:39;;;;;;;1.60;0.28;;;19.90;99.90;;;;;;4955061;28;20114;-79
2023/08/09 11:02:06;;;;;;;1.02;0.30;;;19.80;99.90;;;;;;4955816;28;20022;-83
2023/08/09 11:04:33;;;;;;;1.40;0.20;;;19.90;99.90;;;;;;4942620;28;20034;-83
2023/08/09 11:06:58;;;;;;;0.60;0.30;;;19.50;99.90;;;;;;4955397;28;20324;-82
2023/08/09 11:09:26;;;;;;;0.30;0.20;;;19.50;99.90;;;;;;4952459;28;20452;-81
2023/08/09 11:11:53;;;;;;;0.93;0.30;;;19.80;99.90;;;;;;4956398;28;20027;-81
2023/08/09 11:14:21;;;;;;;0.90;0.25;;;19.70;99.90;;;;;;4962227;28;20035;-83
2023/08/09 11:16:48;;;;;;;2.67;0.30;;;20.00;99.90;;;;;;4956029;28;20498;-81
2023/08/09 11:19:16;;;;;;;1.42;0.30;;;19.80;99.90;;;;;;4956363;28;20137;-80
2023/08/09 11:21:46;;;;;;;1.88;0.25;;;19.90;99.90;;;;;;4956814;28;20031;-79
2023/08/09 11:24:13;;;;;;;0.55;0.22;;;20.00;99.90;;;;;;4941266;28;20034;-81
2023/08/09 11:26:48;;;;;;;1.55;0.30;;;20.30;99.90;;;;;;4960526;28;20038;-82
2023/08/09 11:29:16;;;;;;;0.93;0.30;;;19.70;99.90;;;;;;4955936;28;20489;-84
2023/08/09 11:31:44;;;;;;;0.70;0.30;;;19.70;99.90;;;;;;4946986;28;20034;-81
2023/08/09 11:34:12;;;;;;;1.33;0.30;;;20.20;99.90;;;;;;4955966;28;20106;-81
2023/08/09 11:36:40;;;;;;;0.95;0.30;;;20.30;99.90;;;;;;4955744;28;20027;-80
2023/08/09 11:39:08;;;;;;;1.38;0.30;;;20.50;99.90;;;;;;4946177;28;20027;-81
2023/08/09 11:41:55;;;;;;;0.88;0.40;;;20.20;99.90;;;;;;4956822;28;20102;-82
2023/08/09 11:44:22;;;;;;;3.25;0.47;;;20.20;99.90;;;;;;4955862;28;20039;-89
2023/08/09 11:46:52;;;;;;;1.00;0.30;;;20.30;99.90;;;;;;4958549;28;20032;-80
2023/08/09 11:49:18;;;;;;;0.73;0.20;;;20.20;99.90;;;;;;4956883;28;20042;-82
2023/08/09 11:51:44;;;;;;;0.70;0.20;;;20.10;99.90;;;;;;4953931;28;20468;-82
2023/08/09 11:54:10;;;;;;;0.90;0.30;;;19.90;99.90;;;;;;4951310;28;20039;-83
2023/08/09 11:56:37;;;;;;;0.80;0.20;;;19.90;99.90;;;;;;4952989;28;20051;-82
2023/08/09 11:59:04;;;;;;;2.40;0.30;;;19.80;99.90;;;;;;4951892;28;20025;-81
2023/08/09 12:01:36;;;;;;;1.15;0.30;;;20.00;99.90;;;;;;4960071;28;20106;-82
2023/08/09 12:04:07;;;;;;;1.38;0.30;;;20.20;99.90;;;;;;4954228;28;20035;-84
2023/08/09 12:06:35;;;;;;;0.85;0.30;;;21.00;99.90;;;;;;4957815;28;20098;-79
2023/08/09 12:09:21;;;;;;;1.40;0.50;;;21.50;99.90;;;;;;4953436;28;20039;-81
2023/08/09 12:11:49;;;;;;;0.90;0.40;;;21.00;99.90;;;;;;4968919;28;20059;-83
2023/08/09 12:14:15;;;;;;;1.35;0.60;;;21.00;99.90;;;;;;4945865;28;20491;-80
2023/08/09 12:16:41;;;;;;;1.58;0.60;;;20.40;99.90;;;;;;4941547;28;20066;-80
2023/08/09 12:19:06;;;;;;;2.65;0.50;;;20.20;99.90;;;;;;4955062;28;20498;-81
2023/08/09 12:21:32;;;;;;;2.00;0.55;;;20.20;99.90;;;;;;4959689;28;20065;-82
2023/08/09 12:23:58;;;;;;;1.33;0.60;;;20.20;99.90;;;;;;4939622;28;20031;-82
2023/08/09 12:26:28;;;;;;;2.75;0.73;;;20.30;99.90;;;;;;4956556;28;20066;-85
2023/08/09 12:28:54;;;;;;;3.22;0.57;;;20.30;99.90;;;;;;4969515;28;20074;-80
2023/08/09 12:31:20;;;;;;;1.83;0.60;;;20.60;99.90;;;;;;4959893;28;20550;-84
2023/08/09 12:33:45;;;;;;;2.25;0.70;;;21.00;99.90;;;;;;4942256;28;20519;-84
2023/08/09 12:36:12;;;;;;;1.60;0.70;;;20.90;99.90;;;;;;4940396;28;20554;-80
2023/08/09 12:38:38;;;;;;;4.13;1.35;;;21.30;99.90;;;;;;4952966;28;20529;-81
2023/08/09 12:41:04;;;;;;;2.65;0.70;;;21.50;99.90;;;;;;4956614;28;20546;-82
2023/08/09 12:43:30;;;;;;;2.88;0.70;;;20.90;99.90;;;;;;4956394;28;20023;-81